Portada
METAR-TAF:

METAR-TAF

Aeroports :

Jammu, Índia

latitud: 32-41-21N, longitud: 74-50-15E, altitud: 314 m

METAR: manca

Hora: 12:56 (07:26 UTC)

Pronòstic

L'informe es va fer fa 3 hores i 56 minuts, a les 03:30 UTC
Pronòstic vàlid del 27 a les 06 UTC al 27 a les 18 UTC
Vent 5 kt del Nord/Nord-Est
Visibilitat: 6000 m
Escasses núvols a una alçada de 2500 ft
Temporalment
l' 27 a les 07 UTC al 27 a les 10 UTC
Vent 5 kt del Sud/Sud-Oest
Evolucionant progressivament
l' 27 a les 08 UTC al 27 a les 10 UTC
Núvols disperses a una alçada de 2500 ft
Escasses núvols a una alçada de 3000 ft, Cumulus congestus.
Temporalment
l' 27 a les 10 UTC al 27 a les 14 UTC
Vent 15 kt del Nord/Nord-Est amb ràfegues de 25 kt
Visibilitat: 6000 m
Núvols disperses a una alçada de 2500 ft
Escasses núvols a una alçada de 3000 ft

TAF: VIJU 270330Z 2706/2718 02005KT 6000 FEW025 TEMPO 2707/2710 20005KT BECMG 2708/2710 SCT025 FEW030TCU TEMPO 2710/2714 02015G25KT 6000 SCT025 FEW030 TCU/CB

Observacions i pronòstics meteorològics de més de 4000 aeroports (METAR i TAF).

Les estacions disponibles són els punts grocs i vermells al mapa.

Posi el ratolí al punt desitjat per veure el nom de l'estació.

Feu clic per veure les observacions i els pronòstics meteorològics.

Per canviar el mapa: feu clic els botons verds amb una creu de color negre per apropar; al botó verd amb un guió per allunyar la imatge; o en les fletxes verdes per a mapes adjacents.


METAR-TAF: